createdAt,value
2017-10-11T00:01:50.512Z,12.70
2017-10-11T00:07:33.451Z,12.50
2017-10-11T00:10:06.497Z,12.60
2017-10-11T00:18:42.960Z,12.60
2017-10-11T00:27:25.465Z,12.50
2017-10-11T00:29:53.603Z,12.50
2017-10-11T00:32:36.837Z,12.50
2017-10-11T00:35:17.108Z,12.50
2017-10-11T00:40:38.378Z,12.50
2017-10-11T00:43:32.467Z,12.40
2017-10-11T00:46:21.656Z,12.40
2017-10-11T00:48:52.935Z,12.60
2017-10-11T00:51:50.071Z,12.50
2017-10-11T00:57:27.195Z,12.40
2017-10-11T01:00:02.784Z,12.50
2017-10-11T01:03:04.705Z,12.60
2017-10-11T21:09:09.502Z,11.50
2017-10-11T21:11:46.897Z,11.40
2017-10-11T21:14:28.239Z,11.50
2017-10-11T21:17:04.091Z,11.50
2017-10-11T21:19:37.771Z,11.60
2017-10-11T21:25:00.055Z,11.70
2017-10-11T21:27:36.818Z,11.80
2017-10-11T21:30:07.004Z,11.80
2017-10-11T21:32:43.087Z,11.80
2017-10-11T21:35:27.108Z,11.70
2017-10-11T21:38:02.489Z,11.80
2017-10-11T21:40:37.619Z,11.90
2017-10-11T21:43:08.073Z,11.80
2017-10-11T21:45:50.026Z,11.80
2017-10-11T21:48:22.607Z,11.80
2017-10-11T21:50:58.351Z,11.80
2017-10-11T21:53:31.076Z,12.00
2017-10-11T21:55:59.923Z,12.00
2017-10-11T22:01:17.428Z,12.00
2017-10-11T22:04:08.496Z,12.00
2017-10-11T22:06:39.810Z,12.00
2017-10-11T22:09:18.930Z,12.00
2017-10-11T22:11:49.900Z,12.10
2017-10-11T22:14:32.735Z,12.10
2017-10-11T22:23:11.794Z,12.10
2017-10-11T22:25:42.827Z,12.10
2017-10-11T22:28:13.949Z,12.10
2017-10-11T22:30:44.392Z,12.20
2017-10-11T22:33:13.124Z,12.30
2017-10-11T22:35:44.826Z,12.20
2017-10-11T22:41:04.192Z,12.30
2017-10-11T22:43:44.678Z,12.30
2017-10-11T22:46:15.164Z,12.40
2017-10-11T22:48:48.639Z,12.40
2017-10-11T22:51:17.929Z,12.50
2017-10-11T22:56:44.000Z,12.60
2017-10-11T22:59:15.385Z,12.60
2017-10-11T23:01:50.391Z,12.70
2017-10-11T23:04:26.209Z,12.80
2017-10-11T23:07:17.034Z,12.80
2017-10-11T23:09:55.629Z,12.80
2017-10-11T23:12:35.065Z,12.90
2017-10-11T23:15:10.273Z,12.90
2017-10-11T23:17:43.623Z,13.10
2017-10-11T23:20:17.734Z,13.10
2017-10-11T23:22:51.066Z,13.20
2017-10-11T23:25:29.665Z,13.30
2017-10-11T23:28:08.501Z,13.30
2017-10-11T23:30:38.686Z,13.20
2017-10-11T23:33:13.822Z,13.20
2017-10-11T23:35:47.152Z,13.10
2017-10-11T23:38:22.696Z,13.20
2017-10-11T23:43:33.695Z,13.20
2017-10-11T23:46:11.459Z,13.20
2017-10-11T23:48:48.893Z,13.10
2017-10-11T23:51:20.135Z,13.10
2017-10-11T23:53:58.971Z,13.00
2017-10-11T23:56:33.367Z,13.00
2017-10-11T23:59:05.434Z,13.10
